createdAt,value
2023-03-24T00:01:49.466Z,10.38
2023-03-24T00:04:39.140Z,9.45
2023-03-24T00:07:30.443Z,8.75
2023-03-24T00:10:20.539Z,8.75
2023-03-24T00:13:09.444Z,9.10
2023-03-24T00:15:57.990Z,10.02
2023-03-24T00:18:50.729Z,8.25
2023-03-24T00:21:38.655Z,8.93
2023-03-24T00:24:29.360Z,7.68
2023-03-24T00:27:18.740Z,7.93
2023-03-24T00:30:11.534Z,8.07
2023-03-24T00:33:01.875Z,8.27
2023-03-24T00:35:49.963Z,8.30
2023-03-24T00:38:39.931Z,8.63
2023-03-24T00:41:28.965Z,8.38
2023-03-24T00:44:20.572Z,7.65
2023-03-24T00:47:09.826Z,8.30
2023-03-24T00:49:58.287Z,8.00
2023-03-24T00:52:48.344Z,7.57
2023-03-24T00:55:38.062Z,7.75
2023-03-24T00:58:26.327Z,7.50
2023-03-24T01:01:14.231Z,8.60
2023-03-24T01:04:03.309Z,8.32
2023-03-24T01:06:52.365Z,7.55
2023-03-24T01:09:40.807Z,7.38
2023-03-24T01:12:36.768Z,8.02
2023-03-24T01:15:33.316Z,7.88
2023-03-24T01:18:23.922Z,7.32
2023-03-24T01:21:13.009Z,7.93
2023-03-24T01:24:03.354Z,8.25
2023-03-24T01:26:51.461Z,7.43
2023-03-24T01:29:39.888Z,7.43
2023-03-24T01:32:29.665Z,8.20
2023-03-24T01:35:18.226Z,8.93
2023-03-24T01:38:08.805Z,8.55
2023-03-24T01:40:56.791Z,9.75
2023-03-24T01:43:45.355Z,9.65
2023-03-24T01:46:36.500Z,9.50
2023-03-24T01:49:35.704Z,9.45
2023-03-24T01:52:36.551Z,8.85
2023-03-24T01:55:24.598Z,9.50
2023-03-24T01:58:13.026Z,9.43
2023-03-24T02:01:00.831Z,10.32
2023-03-24T02:03:49.127Z,10.07
2023-03-24T02:06:41.192Z,10.07
2023-03-24T02:09:29.307Z,10.68
2023-03-24T02:12:18.349Z,10.70
2023-03-24T02:15:07.392Z,10.55
2023-03-24T02:18:19.189Z,11.63
2023-03-24T02:21:25.735Z,10.35
2023-03-24T02:24:32.613Z,11.77
2023-03-24T02:27:53.037Z,10.48
2023-03-24T02:31:43.755Z,10.13
2023-03-24T02:34:59.147Z,11.18
2023-03-24T02:38:17.306Z,9.82
2023-03-24T02:41:47.203Z,10.77
2023-03-24T02:45:27.242Z,10.30
2023-03-24T02:48:41.630Z,10.23
2023-03-24T02:51:54.106Z,9.82
2023-03-24T02:55:08.912Z,8.80
2023-03-24T02:58:05.515Z,9.98
2023-03-24T03:01:03.638Z,10.23
2023-03-24T03:03:55.109Z,10.00
2023-03-24T03:06:52.562Z,9.65
2023-03-24T03:09:49.368Z,9.55
2023-03-24T03:12:38.806Z,9.45
2023-03-24T03:15:33.042Z,9.85
2023-03-24T03:18:34.111Z,10.00
2023-03-24T03:21:25.432Z,9.10
2023-03-24T03:24:27.657Z,9.13
2023-03-24T03:27:21.283Z,8.98
2023-03-24T03:30:38.601Z,8.70
2023-03-24T03:33:35.906Z,8.38
2023-03-24T03:36:30.415Z,8.52
2023-03-24T03:39:36.015Z,8.15
2023-03-24T03:42:24.989Z,8.20
2023-03-24T03:45:14.357Z,8.98
2023-03-24T03:48:02.514Z,8.40
2023-03-24T03:50:57.336Z,9.52
2023-03-24T03:53:58.503Z,9.25
2023-03-24T03:56:48.462Z,8.73
2023-03-24T03:59:39.204Z,8.20
2023-03-24T04:02:35.882Z,9.00
2023-03-24T04:05:51.276Z,9.45
2023-03-24T04:09:10.215Z,9.70
2023-03-24T04:12:20.451Z,9.43
2023-03-24T04:15:33.842Z,9.55
2023-03-24T04:19:23.848Z,10.70
2023-03-24T04:22:28.256Z,11.20
2023-03-24T04:28:26.726Z,12.15
2023-03-24T04:31:34.200Z,11.77
2023-03-24T04:34:32.883Z,12.02
2023-03-24T04:37:32.644Z,11.55
2023-03-24T04:40:22.749Z,10.93
2023-03-24T04:43:17.266Z,10.80
2023-03-24T04:46:07.455Z,9.80
2023-03-24T04:48:55.741Z,10.75
2023-03-24T04:51:45.046Z,11.13
2023-03-24T04:54:33.607Z,10.32
2023-03-24T04:57:23.819Z,10.05
2023-03-24T05:00:12.995Z,10.88
2023-03-24T05:03:00.990Z,11.65
2023-03-24T05:05:50.917Z,12.65
2023-03-24T05:08:39.693Z,12.52
2023-03-24T05:11:28.493Z,12.77
2023-03-24T05:14:16.956Z,13.38
2023-03-24T05:17:04.761Z,12.38
2023-03-24T05:19:53.008Z,12.93
2023-03-24T05:22:41.118Z,11.20
2023-03-24T05:25:29.072Z,12.38
2023-03-24T05:28:16.973Z,12.80
2023-03-24T05:31:04.934Z,11.77
2023-03-24T05:33:52.895Z,13.02
2023-03-24T05:36:40.796Z,13.13
2023-03-24T05:39:28.683Z,13.07
2023-03-24T05:42:17.174Z,12.25
2023-03-24T05:45:06.510Z,13.27
2023-03-24T05:47:54.473Z,12.10
2023-03-24T05:50:42.589Z,13.00
2023-03-24T05:53:31.139Z,11.35
2023-03-24T05:56:18.988Z,11.90
2023-03-24T05:59:06.922Z,11.50
2023-03-24T06:01:58.631Z,11.57
2023-03-24T06:04:48.896Z,11.43
2023-03-24T06:07:38.933Z,9.70
2023-03-24T06:10:27.955Z,10.77
2023-03-24T06:13:15.970Z,10.88
2023-03-24T06:16:04.184Z,11.88
2023-03-24T06:18:53.143Z,10.30
2023-03-24T06:21:41.204Z,9.68
2023-03-24T06:24:30.113Z,9.60
2023-03-24T06:27:21.685Z,9.73
2023-03-24T06:30:10.820Z,8.73
2023-03-24T06:33:01.975Z,7.35
2023-03-24T06:35:52.736Z,7.55
2023-03-24T06:38:42.209Z,6.38
2023-03-24T06:41:30.173Z,6.82
2023-03-24T06:44:18.286Z,6.85
2023-03-24T06:47:06.581Z,6.50
2023-03-24T06:49:54.524Z,5.78
2023-03-24T06:52:42.412Z,6.05
2023-03-24T06:55:30.201Z,5.28
2023-03-24T06:58:19.649Z,5.18
2023-03-24T07:01:07.547Z,4.40
2023-03-24T07:03:56.140Z,4.68
2023-03-24T07:06:59.858Z,4.75
2023-03-24T07:09:54.929Z,4.72
2023-03-24T07:12:45.293Z,5.30
2023-03-24T07:15:33.729Z,5.10
2023-03-24T07:18:22.034Z,5.00
2023-03-24T07:21:12.699Z,4.60
2023-03-24T07:24:02.320Z,5.03
2023-03-24T07:26:50.481Z,5.20
2023-03-24T07:29:38.715Z,5.45
2023-03-24T07:32:30.810Z,5.32
2023-03-24T07:35:19.079Z,5.50
2023-03-24T07:38:07.305Z,6.30
2023-03-24T07:40:55.397Z,5.95
2023-03-24T07:43:43.422Z,7.40
2023-03-24T07:46:34.426Z,8.57
2023-03-24T07:49:22.438Z,11.32
2023-03-24T07:52:10.321Z,16.55
2023-03-24T07:54:58.236Z,13.73
2023-03-24T07:57:48.273Z,11.48
2023-03-24T08:00:37.660Z,12.20
2023-03-24T08:03:27.893Z,11.35
2023-03-24T08:06:16.715Z,11.80
2023-03-24T08:09:04.825Z,14.43
2023-03-24T08:11:52.948Z,13.20
2023-03-24T08:14:44.553Z,14.48
2023-03-24T08:17:33.779Z,13.07
2023-03-24T08:20:24.724Z,12.25
2023-03-24T08:23:12.673Z,13.40
2023-03-24T08:26:01.436Z,13.05
2023-03-24T08:28:50.036Z,12.98
2023-03-24T08:31:38.360Z,13.43
2023-03-24T08:34:26.198Z,12.05
2023-03-24T08:37:14.139Z,10.52
2023-03-24T08:40:12.149Z,9.48
2023-03-24T08:43:03.741Z,9.38
2023-03-24T08:45:52.472Z,10.95
2023-03-24T08:48:41.369Z,10.20
2023-03-24T08:51:29.540Z,12.13
2023-03-24T08:54:18.233Z,11.60
2023-03-24T08:57:06.815Z,12.82
2023-03-24T08:59:54.834Z,12.20
2023-03-24T09:02:47.006Z,12.68
2023-03-24T09:05:44.576Z,11.02
2023-03-24T09:08:32.817Z,8.93
2023-03-24T09:11:22.427Z,7.30
2023-03-24T09:14:10.247Z,6.05
2023-03-24T09:16:58.153Z,6.43
2023-03-24T09:19:47.712Z,6.65
2023-03-24T09:22:46.962Z,6.03
2023-03-24T09:25:35.134Z,5.10
2023-03-24T09:28:23.326Z,5.47
2023-03-24T09:31:12.062Z,4.63
2023-03-24T09:34:03.865Z,3.95
2023-03-24T09:36:52.108Z,2.38
2023-03-24T09:39:40.332Z,2.60
2023-03-24T09:42:41.558Z,2.40
2023-03-24T09:45:34.894Z,2.30
2023-03-24T09:48:41.809Z,2.47
2023-03-24T09:51:42.999Z,1.70
2023-03-24T09:54:59.271Z,1.92
2023-03-24T09:57:50.729Z,1.45
2023-03-24T10:00:39.065Z,1.88
2023-03-24T10:03:27.593Z,1.90
2023-03-24T10:06:27.037Z,1.70
2023-03-24T10:09:32.365Z,2.00
2023-03-24T10:12:29.632Z,2.40
2023-03-24T10:15:46.756Z,2.25
2023-03-24T10:18:45.488Z,2.45
2023-03-24T10:21:41.165Z,1.90
2023-03-24T10:24:48.272Z,2.42
2023-03-24T10:27:47.910Z,2.50
2023-03-24T10:30:43.038Z,2.10
2023-03-24T10:33:31.873Z,2.08
2023-03-24T10:36:34.145Z,2.35
2023-03-24T10:39:26.312Z,2.40
2023-03-24T10:42:35.409Z,1.70
2023-03-24T10:45:33.469Z,2.25
2023-03-24T10:49:07.143Z,2.13
2023-03-24T10:52:04.075Z,1.90
2023-03-24T10:55:06.385Z,2.50
2023-03-24T10:57:58.426Z,1.67
2023-03-24T11:00:47.269Z,1.95
2023-03-24T11:03:38.010Z,2.50
2023-03-24T11:06:26.037Z,3.67
2023-03-24T11:09:21.991Z,1.70
2023-03-24T11:12:32.366Z,2.00
2023-03-24T11:15:29.311Z,2.55
2023-03-24T11:18:18.137Z,2.33
2023-03-24T11:21:08.271Z,2.20
2023-03-24T11:24:04.387Z,2.60
2023-03-24T11:27:02.054Z,2.58
2023-03-24T11:29:56.607Z,2.08
2023-03-24T11:32:48.195Z,2.50
2023-03-24T11:35:59.324Z,2.30
2023-03-24T11:39:28.090Z,2.15
2023-03-24T11:42:18.409Z,2.10
2023-03-24T11:45:33.205Z,1.65
2023-03-24T11:51:37.391Z,1.77
2023-03-24T11:54:33.324Z,1.67
2023-03-24T11:57:44.513Z,2.65
2023-03-24T12:00:47.210Z,1.85
2023-03-24T12:03:59.500Z,1.70
2023-03-24T12:07:01.628Z,2.03
2023-03-24T12:10:16.387Z,2.20
2023-03-24T12:13:32.276Z,2.10
2023-03-24T12:17:14.020Z,2.00
2023-03-24T12:20:36.765Z,1.77
2023-03-24T12:23:49.480Z,1.80
2023-03-24T12:26:39.707Z,1.63
2023-03-24T12:29:52.441Z,1.50
2023-03-24T12:33:00.162Z,1.30
2023-03-24T12:36:19.767Z,1.33
2023-03-24T12:39:12.957Z,1.60
2023-03-24T12:42:10.882Z,1.33
2023-03-24T12:45:49.878Z,1.50
2023-03-24T12:49:12.057Z,1.75
2023-03-24T12:52:37.324Z,1.20
2023-03-24T12:55:53.436Z,1.83
2023-03-24T12:58:54.455Z,1.50
2023-03-24T13:01:58.211Z,1.77
2023-03-24T13:04:49.554Z,1.58
2023-03-24T13:07:39.455Z,1.92
2023-03-24T13:10:31.035Z,1.50
2023-03-24T13:13:25.306Z,1.50
2023-03-24T13:16:23.339Z,1.60
2023-03-24T13:19:24.040Z,1.50
2023-03-24T13:22:21.384Z,1.45
2023-03-24T13:25:37.178Z,1.50
2023-03-24T13:28:34.839Z,1.55
2023-03-24T13:31:26.007Z,1.40
2023-03-24T13:34:31.847Z,1.40
2023-03-24T13:37:25.388Z,1.25
2023-03-24T13:40:23.003Z,1.80
2023-03-24T13:43:17.239Z,1.42
2023-03-24T13:48:58.706Z,1.42
2023-03-24T13:51:47.501Z,1.20
2023-03-24T13:54:37.913Z,1.20
2023-03-24T13:57:26.808Z,1.45
2023-03-24T14:00:24.855Z,1.70
2023-03-24T14:03:22.468Z,1.38
2023-03-24T14:06:48.250Z,1.27
2023-03-24T14:10:01.767Z,1.77
2023-03-24T14:12:58.740Z,1.50
2023-03-24T14:15:54.200Z,1.30
2023-03-24T14:18:42.969Z,1.65
2023-03-24T14:21:34.528Z,1.48
2023-03-24T14:24:28.422Z,1.40
2023-03-24T14:27:37.593Z,1.52
2023-03-24T14:30:33.611Z,1.40
2023-03-24T14:33:26.410Z,1.30
2023-03-24T14:36:40.278Z,1.30
2023-03-24T14:39:46.037Z,2.13
2023-03-24T14:42:33.893Z,1.70
2023-03-24T14:45:33.671Z,1.70
2023-03-24T14:48:57.897Z,1.45
2023-03-24T14:52:32.093Z,1.10
2023-03-24T14:55:22.021Z,1.63
2023-03-24T14:58:39.012Z,1.73
2023-03-24T15:01:38.687Z,1.77
2023-03-24T15:04:26.829Z,1.52
2023-03-24T15:07:15.114Z,1.60
2023-03-24T15:10:03.361Z,1.48
2023-03-24T15:12:52.030Z,1.83
2023-03-24T15:15:48.053Z,1.70
2023-03-24T15:18:38.880Z,1.25
2023-03-24T15:22:00.445Z,1.60
2023-03-24T15:24:52.177Z,1.30
2023-03-24T15:27:40.611Z,1.65
2023-03-24T15:30:29.276Z,1.52
2023-03-24T15:33:18.099Z,1.80
2023-03-24T15:36:16.846Z,1.42
2023-03-24T15:39:18.935Z,1.85
2023-03-24T15:42:18.500Z,1.98
2023-03-24T15:45:22.269Z,1.67
2023-03-24T15:48:17.461Z,1.65
2023-03-24T15:51:09.434Z,1.23
2023-03-24T15:53:59.219Z,1.70
2023-03-24T15:57:14.014Z,1.75
2023-03-24T16:02:53.765Z,1.38
2023-03-24T16:05:48.666Z,1.88
2023-03-24T16:08:41.151Z,1.58
2023-03-24T16:11:29.755Z,1.45
2023-03-24T16:14:24.258Z,1.60
2023-03-24T16:17:12.243Z,1.20
2023-03-24T16:20:00.237Z,2.05
2023-03-24T16:22:48.249Z,1.50
2023-03-24T16:25:36.284Z,1.70
2023-03-24T16:28:25.339Z,1.42
2023-03-24T16:31:27.508Z,1.70
2023-03-24T16:34:21.925Z,1.63
2023-03-24T16:37:10.722Z,1.50
2023-03-24T16:39:58.676Z,1.50
2023-03-24T16:42:46.782Z,1.20
2023-03-24T16:45:35.773Z,1.55
2023-03-24T16:48:23.806Z,1.52
2023-03-24T16:51:17.069Z,1.45
2023-03-24T16:54:05.714Z,1.77
2023-03-24T16:56:53.734Z,2.03
2023-03-24T16:59:42.152Z,1.50
2023-03-24T17:02:31.954Z,1.90
2023-03-24T17:05:28.118Z,1.50
2023-03-24T17:08:22.765Z,1.52
2023-03-24T17:11:16.441Z,1.42
2023-03-24T17:14:08.477Z,1.58
2023-03-24T17:16:56.598Z,2.03
2023-03-24T17:19:44.769Z,2.05
2023-03-24T17:22:32.897Z,1.30
2023-03-24T17:25:23.505Z,1.48
2023-03-24T17:28:18.278Z,1.50
2023-03-24T17:31:06.299Z,1.40
2023-03-24T17:33:54.278Z,1.85
2023-03-24T17:36:42.243Z,1.40
2023-03-24T17:39:33.055Z,1.67
2023-03-24T17:42:21.765Z,2.30
2023-03-24T17:45:20.564Z,1.58
2023-03-24T17:48:08.777Z,1.40
2023-03-24T17:50:57.318Z,2.17
2023-03-24T17:53:48.253Z,1.40
2023-03-24T17:56:42.397Z,1.60
2023-03-24T18:02:18.215Z,2.00
2023-03-24T18:05:07.616Z,1.65
2023-03-24T18:07:55.438Z,2.22
2023-03-24T18:10:43.688Z,1.90
2023-03-24T18:13:31.536Z,2.08
2023-03-24T18:16:22.196Z,1.85
2023-03-24T18:19:13.823Z,2.40
2023-03-24T18:22:01.994Z,2.03
2023-03-24T18:24:50.145Z,2.17
2023-03-24T18:27:38.987Z,2.00
2023-03-24T18:30:26.982Z,2.10
2023-03-24T18:33:16.134Z,1.67
2023-03-24T18:36:06.236Z,1.92
2023-03-24T18:39:09.354Z,1.98
2023-03-24T18:41:57.365Z,3.00
2023-03-24T18:44:46.150Z,1.95
2023-03-24T18:47:35.063Z,2.83
2023-03-24T18:50:23.500Z,1.75
2023-03-24T18:53:13.720Z,1.95
2023-03-24T18:56:09.171Z,2.35
2023-03-24T18:58:57.154Z,2.00
2023-03-24T19:01:47.317Z,1.73
2023-03-24T19:04:35.909Z,1.95
2023-03-24T19:07:26.454Z,2.08
2023-03-24T19:10:15.859Z,3.05
2023-03-24T19:13:05.441Z,2.03
2023-03-24T19:15:56.501Z,2.70
2023-03-24T19:18:44.828Z,1.77
2023-03-24T19:21:33.405Z,2.50
2023-03-24T19:24:21.291Z,2.65
2023-03-24T19:27:11.475Z,1.92
2023-03-24T19:29:59.417Z,1.63
2023-03-24T19:32:47.561Z,1.65
2023-03-24T19:35:35.584Z,1.70
2023-03-24T19:38:23.938Z,2.22
2023-03-24T19:41:14.434Z,2.30
2023-03-24T19:44:04.536Z,2.10
2023-03-24T19:46:52.365Z,1.60
2023-03-24T19:49:42.895Z,1.50
2023-03-24T19:52:39.302Z,1.60
2023-03-24T19:55:27.311Z,1.40
2023-03-24T19:58:19.936Z,1.60
2023-03-24T20:01:09.911Z,1.60
2023-03-24T20:03:59.420Z,1.67
2023-03-24T20:06:51.885Z,1.10
2023-03-24T20:09:42.234Z,1.38
2023-03-24T20:12:31.045Z,1.52
2023-03-24T20:15:19.354Z,1.23
2023-03-24T20:18:07.912Z,1.25
2023-03-24T20:21:01.560Z,1.23
2023-03-24T20:23:51.079Z,1.48
2023-03-24T20:26:38.903Z,1.65
2023-03-24T20:29:27.036Z,1.42
2023-03-24T20:32:16.243Z,1.60
2023-03-24T20:35:09.049Z,1.92
2023-03-24T20:37:57.548Z,1.88
2023-03-24T20:40:46.560Z,1.80
2023-03-24T20:43:39.836Z,2.13
2023-03-24T20:46:27.989Z,1.63
2023-03-24T20:49:17.853Z,1.75
2023-03-24T20:52:08.796Z,1.70
2023-03-24T20:54:56.752Z,1.83
2023-03-24T20:57:44.853Z,2.20
2023-03-24T21:00:32.773Z,2.47
2023-03-24T21:03:21.286Z,2.10
2023-03-24T21:06:11.014Z,2.05
2023-03-24T21:09:02.515Z,2.30
2023-03-24T21:11:55.034Z,1.95
2023-03-24T21:14:47.168Z,2.00
2023-03-24T21:17:36.881Z,1.80
2023-03-24T21:20:31.061Z,1.70
2023-03-24T21:26:15.462Z,1.77
2023-03-24T21:29:03.433Z,1.80
2023-03-24T21:31:51.734Z,1.85
2023-03-24T21:34:39.607Z,1.77
2023-03-24T21:37:30.419Z,2.22
2023-03-24T21:40:21.786Z,2.28
2023-03-24T21:43:11.997Z,2.13
2023-03-24T21:46:02.320Z,2.20
2023-03-24T21:48:53.313Z,1.98
2023-03-24T21:51:42.996Z,1.45
2023-03-24T21:54:34.438Z,1.67
2023-03-24T21:57:25.229Z,1.50
2023-03-24T22:00:17.964Z,1.80
2023-03-24T22:03:06.372Z,1.88
2023-03-24T22:05:58.005Z,1.13
2023-03-24T22:08:48.855Z,1.42
2023-03-24T22:11:42.854Z,1.40
2023-03-24T22:17:21.887Z,1.30
2023-03-24T22:20:12.774Z,1.20
2023-03-24T22:23:03.884Z,1.45
2023-03-24T22:25:53.023Z,1.05
2023-03-24T22:28:42.388Z,1.00
2023-03-24T22:31:30.375Z,0.95
2023-03-24T22:34:18.255Z,1.20
2023-03-24T22:37:06.131Z,1.33
2023-03-24T22:39:54.055Z,1.15
2023-03-24T22:42:42.126Z,1.10
2023-03-24T22:45:29.930Z,1.23
2023-03-24T22:48:18.070Z,0.90
2023-03-24T22:51:06.919Z,1.20
2023-03-24T22:53:54.819Z,0.82
2023-03-24T22:56:42.798Z,1.25
2023-03-24T22:59:32.450Z,1.05
2023-03-24T23:02:24.601Z,0.90
2023-03-24T23:05:13.003Z,1.05
2023-03-24T23:08:01.051Z,0.95
2023-03-24T23:10:49.020Z,1.15
2023-03-24T23:13:38.713Z,1.00
2023-03-24T23:16:29.090Z,1.38
2023-03-24T23:19:17.075Z,1.25
2023-03-24T23:22:05.225Z,1.20
2023-03-24T23:25:00.581Z,1.20
2023-03-24T23:27:50.984Z,1.10
2023-03-24T23:30:40.032Z,0.98
2023-03-24T23:33:28.091Z,1.13
2023-03-24T23:36:19.115Z,1.08
2023-03-24T23:39:07.352Z,1.00
2023-03-24T23:41:55.591Z,0.98
2023-03-24T23:44:43.414Z,1.00
2023-03-24T23:47:33.478Z,1.00
2023-03-24T23:50:24.600Z,1.33
2023-03-24T23:53:12.397Z,1.45
2023-03-24T23:56:06.894Z,0.95
2023-03-24T23:58:54.762Z,2.30
